Time;durP1;ratioP1;P1;durP2;ratioP2;P2;SDS_P1;SDS_P2;PMS_P1;PMS_P2;Temp;Humidity;BMP_temperature;BMP_pressure;BME280_temperature;BME280_humidity;BME280_pressure;Samples;Min_cycle;Max_cycle;Signal;HPM_P1;HPM_P2
2021/11/06 00:20:10;;;;;;;15.02;6.45;;;16.80;71.00;;;;;;5076605;27;20517;-71
2021/11/06 00:22:37;;;;;;;21.38;9.45;;;17.10;69.90;;;;;;5065991;28;20075;-71
2021/11/06 00:25:05;;;;;;;16.02;7.60;;;17.10;69.80;;;;;;5064060;28;20082;-71
2021/11/06 00:27:33;;;;;;;15.90;8.13;;;17.10;69.70;;;;;;5063906;28;20060;-71
2021/11/06 00:30:00;;;;;;;12.95;8.48;;;17.10;69.70;;;;;;5064902;28;20013;-71
2021/11/06 00:32:26;;;;;;;18.05;7.72;;;17.10;69.80;;;;;;5066642;28;20498;-71
2021/11/06 00:34:54;;;;;;;11.48;6.32;;;17.10;69.70;;;;;;5065113;28;20017;-71
2021/11/06 00:37:20;;;;;;;15.18;9.85;;;17.10;69.60;;;;;;5066654;28;20554;-71
2021/11/06 00:39:47;;;;;;;22.27;8.57;;;17.10;69.70;;;;;;5063603;28;20487;-71
2021/11/06 00:42:13;;;;;;;22.05;9.32;;;17.10;69.70;;;;;;5065318;28;20013;-71
2021/11/06 00:44:40;;;;;;;16.30;8.98;;;17.10;69.60;;;;;;5064252;28;20028;-71
2021/11/06 00:47:07;;;;;;;17.25;9.32;;;17.00;69.70;;;;;;5063240;28;20032;-71
2021/11/06 00:49:34;;;;;;;14.10;8.35;;;17.00;70.00;;;;;;5066456;28;20075;-71
2021/11/06 00:52:01;;;;;;;22.00;10.18;;;17.00;70.00;;;;;;5065143;28;20471;-71
2021/11/06 00:54:27;;;;;;;19.50;8.13;;;17.00;70.10;;;;;;5066616;28;20032;-71
2021/11/06 00:56:54;;;;;;;18.33;9.10;;;17.00;70.00;;;;;;5065605;28;20079;-72
2021/11/06 00:59:20;;;;;;;14.95;7.30;;;17.00;70.20;;;;;;5065657;28;20025;-71
2021/11/06 01:01:46;;;;;;;13.18;5.88;;;17.00;70.40;;;;;;5065969;28;20017;-71
2021/11/06 01:04:13;;;;;;;11.07;6.22;;;17.00;70.40;;;;;;5064312;28;20025;-71
2021/11/06 01:06:39;;;;;;;18.95;6.25;;;17.00;70.50;;;;;;5066207;28;20417;-72
2021/11/06 01:09:06;;;;;;;37.78;26.48;;;17.00;70.70;;;;;;5063245;28;20039;-71
2021/11/06 01:11:34;;;;;;;21.00;10.77;;;17.00;70.60;;;;;;5065846;28;20036;-72
2021/11/06 01:14:01;;;;;;;14.82;5.80;;;17.00;70.70;;;;;;5064072;28;20098;-72
2021/11/06 01:16:28;;;;;;;8.63;5.90;;;17.00;70.60;;;;;;5065520;28;20051;-71
2021/11/06 01:18:54;;;;;;;10.52;5.68;;;17.00;70.80;;;;;;5062151;28;20532;-71
2021/11/06 01:21:21;;;;;;;14.27;5.57;;;17.00;70.70;;;;;;5051565;28;20029;-71
2021/11/06 01:23:47;;;;;;;8.73;4.85;;;16.90;70.50;;;;;;5052006;28;20037;-71
2021/11/06 01:26:14;;;;;;;10.13;4.55;;;16.90;70.70;;;;;;5051356;28;20572;-71
2021/11/06 01:28:40;;;;;;;11.40;4.07;;;16.90;71.00;;;;;;5052010;28;20175;-71
2021/11/06 01:31:07;;;;;;;11.00;4.07;;;16.80;71.20;;;;;;5049222;28;20032;-71
2021/11/06 01:33:34;;;;;;;15.63;5.38;;;16.80;71.00;;;;;;5052558;28;20071;-71
2021/11/06 01:36:01;;;;;;;8.18;3.97;;;16.80;71.00;;;;;;5050475;28;20029;-71
2021/11/06 01:38:28;;;;;;;13.85;4.70;;;16.80;71.10;;;;;;5051344;28;20047;-71
2021/11/06 01:40:55;;;;;;;10.45;4.53;;;16.70;71.10;;;;;;5052506;28;20424;-71
2021/11/06 01:43:22;;;;;;;10.93;4.40;;;16.70;71.20;;;;;;5050809;28;20029;-71
2021/11/06 01:45:57;;;;;;;12.88;5.70;;;16.70;71.40;;;;;;5051918;28;20037;-71
2021/11/06 01:48:23;;;;;;;6.85;3.30;;;16.60;71.50;;;;;;5050340;28;20120;-71
2021/11/06 01:51:29;;;;;;;5.00;3.65;;;16.60;71.60;;;;;;5045215;28;20021;-71
2021/11/06 01:54:36;;;;;;;11.63;4.47;;;16.60;71.80;;;;;;5048396;28;20441;-71
2021/11/06 01:57:42;;;;;;;12.48;5.15;;;16.60;71.80;;;;;;5046311;28;20052;-71
2021/11/06 02:00:48;;;;;;;6.40;3.88;;;16.60;71.80;;;;;;5048491;28;20013;-71
2021/11/06 02:03:54;;;;;;;7.38;4.43;;;16.50;71.70;;;;;;5046793;28;20514;-71
2021/11/06 02:07:00;;;;;;;8.40;4.63;;;16.50;72.50;;;;;;5049454;28;20056;-71
2021/11/06 02:10:06;;;;;;;14.13;5.32;;;16.50;72.00;;;;;;5045548;28;20025;-72
2021/11/06 02:13:13;;;;;;;13.73;4.97;;;16.50;72.30;;;;;;5051485;28;20058;-72
2021/11/06 02:16:19;;;;;;;9.32;4.97;;;16.50;72.30;;;;;;5049445;28;20024;-72
2021/11/06 02:19:25;;;;;;;11.07;3.75;;;16.40;72.30;;;;;;5049178;28;20041;-71
2021/11/06 02:22:31;;;;;;;11.10;3.97;;;16.40;72.30;;;;;;5049890;28;20032;-71
2021/11/06 02:25:37;;;;;;;10.82;4.03;;;16.40;72.50;;;;;;5050767;28;20079;-71
2021/11/06 02:28:43;;;;;;;14.23;3.63;;;16.40;72.70;;;;;;5048347;28;20033;-71
2021/11/06 02:31:50;;;;;;;10.43;3.78;;;16.40;72.70;;;;;;5048931;28;20029;-72
2021/11/06 02:34:56;;;;;;;7.88;3.75;;;16.40;72.60;;;;;;5049028;28;20553;-71
2021/11/06 02:38:02;;;;;;;9.48;3.35;;;16.40;72.60;;;;;;5051248;28;20024;-72
2021/11/06 02:40:48;;;;;;;;;;;16.40;72.30;;;;;;5050657;28;20025;-72
2021/11/06 02:43:54;;;;;;;6.33;3.50;;;16.40;72.30;;;;;;5048458;28;20386;-71
2021/11/06 02:47:00;;;;;;;14.93;3.20;;;16.40;72.20;;;;;;5045937;28;20284;-71
2021/11/06 02:50:06;;;;;;;6.40;3.28;;;16.40;72.00;;;;;;5049518;28;20047;-71
2021/11/06 02:53:12;;;;;;;9.13;2.85;;;16.40;72.10;;;;;;5049336;28;20029;-71
2021/11/06 02:56:18;;;;;;;7.18;3.03;;;16.40;72.10;;;;;;5048448;28;20391;-72
2021/11/06 02:59:25;;;;;;;9.65;2.88;;;16.40;71.80;;;;;;5049986;28;20028;-71
2021/11/06 03:02:31;;;;;;;6.05;3.10;;;16.40;71.80;;;;;;5048216;28;20027;-71
2021/11/06 03:05:37;;;;;;;9.73;4.60;;;16.40;71.80;;;;;;5049688;28;20104;-71
2021/11/06 03:08:43;;;;;;;12.30;4.85;;;16.30;71.70;;;;;;5049996;28;20399;-71
2021/11/06 03:11:49;;;;;;;10.60;5.03;;;16.30;71.60;;;;;;5048301;28;20135;-71
2021/11/06 03:14:55;;;;;;;9.45;3.92;;;16.30;71.90;;;;;;5049153;28;20515;-71
2021/11/06 03:18:01;;;;;;;7.32;4.80;;;16.30;71.80;;;;;;5049395;28;20033;-71
2021/11/06 03:21:07;;;;;;;9.52;2.67;;;16.30;71.70;;;;;;5050021;28;20032;-71
2021/11/06 03:24:13;;;;;;;10.00;3.88;;;16.20;71.60;;;;;;5047480;28;20075;-71
2021/11/06 03:27:19;;;;;;;8.00;3.15;;;16.20;71.80;;;;;;5047723;28;20451;-71
2021/11/06 03:30:25;;;;;;;7.13;2.33;;;16.20;71.90;;;;;;5048741;28;20032;-72
2021/11/06 03:33:31;;;;;;;7.35;3.33;;;16.20;72.10;;;;;;5048231;28;20036;-72
2021/11/06 03:36:37;;;;;;;4.05;2.38;;;16.10;71.80;;;;;;5048804;28;20029;-72
2021/11/06 03:39:43;;;;;;;4.30;2.42;;;16.10;72.00;;;;;;5049570;28;20082;-72
2021/11/06 03:42:49;;;;;;;7.65;2.10;;;16.20;72.00;;;;;;5045096;28;20495;-72
2021/11/06 03:45:56;;;;;;;4.55;2.25;;;16.20;72.00;;;;;;5048601;28;20090;-72
2021/11/06 03:49:02;;;;;;;8.55;1.83;;;16.10;71.80;;;;;;5048879;28;20049;-72
2021/11/06 03:52:08;;;;;;;9.40;1.85;;;16.10;72.00;;;;;;5049514;28;20021;-72
2021/11/06 03:54:34;;;;;;;3.88;2.10;;;16.10;71.90;;;;;;5046407;28;20025;-72
2021/11/06 03:57:01;;;;;;;6.40;2.38;;;16.20;72.10;;;;;;5048724;28;20416;-72
2021/11/06 03:59:27;;;;;;;7.85;2.50;;;16.10;72.00;;;;;;5045847;28;20090;-71
2021/11/06 04:01:54;;;;;;;6.35;2.65;;;16.20;71.80;;;;;;5048141;28;20017;-74
2021/11/06 04:05:00;;;;;;;5.20;3.15;;;16.20;72.20;;;;;;5049125;28;20021;-72
2021/11/06 04:07:46;;;;;;;;;;;16.20;72.10;;;;;;5049131;28;20082;-71
2021/11/06 04:10:52;;;;;;;7.40;3.07;;;16.20;72.20;;;;;;5047082;28;19963;-74
2021/11/06 04:13:58;;;;;;;56.65;40.05;;;16.30;72.30;;;;;;5044044;28;20021;-69
2021/11/06 04:17:04;;;;;;;42.67;27.42;;;16.30;72.40;;;;;;5047569;28;20604;-70
2021/11/06 04:20:10;;;;;;;21.67;10.40;;;16.30;72.20;;;;;;5045407;28;20041;-71
2021/11/06 04:23:16;;;;;;;12.68;5.93;;;16.30;72.20;;;;;;5046027;28;20048;-72
2021/11/06 04:26:22;;;;;;;5.32;2.67;;;16.40;72.10;;;;;;5048249;28;20032;-72
2021/11/06 04:29:28;;;;;;;4.30;2.55;;;16.40;72.10;;;;;;5048287;28;20039;-72
2021/11/06 04:31:55;;;;;;;9.63;4.07;;;16.40;72.10;;;;;;5046665;28;20631;-76
2021/11/06 04:34:21;;;;;;;6.60;4.32;;;16.40;72.30;;;;;;5048712;28;20028;-75
2021/11/06 04:36:48;;;;;;;16.83;8.55;;;16.30;72.40;;;;;;5048144;28;20023;-74
2021/11/06 04:39:14;;;;;;;35.92;20.13;;;16.40;72.60;;;;;;5048959;28;20033;-74
2021/11/06 04:41:41;;;;;;;12.35;6.65;;;16.40;72.70;;;;;;5047115;28;20017;-76
2021/11/06 04:44:07;;;;;;;21.55;16.25;;;16.40;72.60;;;;;;5047465;28;20070;-74
2021/11/06 04:46:34;;;;;;;24.92;15.90;;;16.50;72.60;;;;;;5048606;28;20023;-75
2021/11/06 04:49:01;;;;;;;15.38;7.22;;;16.60;72.70;;;;;;5043650;28;20041;-75
2021/11/06 04:51:28;;;;;;;15.20;6.80;;;16.60;72.40;;;;;;5048958;28;20494;-72
2021/11/06 04:53:55;;;;;;;9.40;5.53;;;16.70;72.40;;;;;;5044719;28;20021;-71
2021/11/06 04:56:21;;;;;;;16.13;6.80;;;16.60;72.40;;;;;;5050671;28;20017;-73
2021/11/06 04:58:48;;;;;;;11.60;6.43;;;16.70;72.40;;;;;;5048735;28;20460;-72
2021/11/06 05:01:15;;;;;;;21.10;6.80;;;16.80;72.50;;;;;;5051312;28;20029;-71
2021/11/06 05:03:42;;;;;;;14.07;6.45;;;16.70;72.30;;;;;;5049553;28;20171;-72
2021/11/06 05:06:08;;;;;;;9.63;5.00;;;16.80;72.20;;;;;;5050374;28;20510;-73
2021/11/06 05:09:18;;;;;;;15.15;6.32;;;16.90;72.00;;;;;;5041885;28;20077;-71
2021/11/06 05:12:24;;;;;;;10.68;4.97;;;17.00;71.70;;;;;;5046313;28;20036;-75
2021/11/06 05:15:30;;;;;;;12.02;6.57;;;17.10;71.40;;;;;;5050294;28;20024;-76
2021/11/06 05:18:36;;;;;;;13.60;5.72;;;17.20;71.40;;;;;;5050266;28;20021;-76
2021/11/06 05:21:44;;;;;;;10.30;5.13;;;17.30;71.10;;;;;;5049733;28;20025;-74
2021/11/06 05:24:50;;;;;;;27.55;6.15;;;17.30;70.90;;;;;;5049021;28;20033;-72
2021/11/06 05:27:56;;;;;;;11.07;5.88;;;17.40;70.40;;;;;;5049408;28;20047;-73
2021/11/06 05:30:23;;;;;;;12.20;6.10;;;17.50;70.20;;;;;;5049994;28;20016;-71
2021/11/06 05:32:49;;;;;;;8.45;4.65;;;17.50;70.00;;;;;;5049062;28;20028;-72
2021/11/06 05:35:16;;;;;;;9.95;4.55;;;17.50;70.00;;;;;;5050509;28;20463;-72
2021/11/06 05:37:46;;;;;;;8.80;5.03;;;17.50;69.90;;;;;;5049575;28;20155;-71
2021/11/06 05:40:13;;;;;;;7.72;3.92;;;17.60;70.20;;;;;;5050618;28;20021;-71
2021/11/06 05:42:41;;;;;;;8.85;4.00;;;17.60;70.40;;;;;;5046844;28;20031;-72
2021/11/06 05:45:09;;;;;;;10.02;4.95;;;17.70;70.50;;;;;;5047595;28;20025;-71
2021/11/06 05:47:36;;;;;;;10.77;4.82;;;17.70;70.50;;;;;;5047932;28;20100;-72
2021/11/06 05:50:05;;;;;;;15.90;7.93;;;17.80;70.90;;;;;;5048355;28;20032;-71
2021/11/06 05:52:32;;;;;;;18.90;6.40;;;17.80;70.90;;;;;;5049652;28;20039;-72
2021/11/06 05:54:59;;;;;;;14.57;4.55;;;17.90;71.40;;;;;;5047761;28;20017;-72
2021/11/06 05:57:25;;;;;;;15.05;4.38;;;17.90;71.40;;;;;;5051041;28;20024;-70
2021/11/06 05:59:52;;;;;;;18.85;4.65;;;18.00;71.50;;;;;;5050023;28;20017;-73
2021/11/06 06:02:18;;;;;;;10.18;4.15;;;18.00;72.00;;;;;;5050792;28;20029;-72
2021/11/06 06:04:46;;;;;;;18.77;4.57;;;18.10;72.20;;;;;;5050661;28;20021;-72
2021/11/06 06:07:12;;;;;;;20.08;9.07;;;18.10;72.10;;;;;;5044596;28;20041;-73
2021/11/06 06:09:39;;;;;;;12.35;4.05;;;18.20;72.00;;;;;;5050685;28;20071;-72
2021/11/06 06:12:06;;;;;;;15.68;4.10;;;18.30;71.60;;;;;;5049795;28;20040;-72
2021/11/06 06:14:32;;;;;;;16.65;2.95;;;18.40;71.20;;;;;;5051012;28;20021;-75
2021/11/06 06:16:59;;;;;;;13.27;3.28;;;18.40;70.80;;;;;;5049488;28;20497;-73
2021/11/06 06:19:26;;;;;;;11.48;4.40;;;18.50;70.70;;;;;;5051117;28;20041;-76
2021/11/06 06:21:52;;;;;;;9.30;3.95;;;18.60;70.50;;;;;;5050072;28;20025;-73
2021/11/06 06:24:19;;;;;;;13.10;3.15;;;18.50;70.30;;;;;;5049527;28;20113;-74
2021/11/06 06:26:45;;;;;;;9.35;3.17;;;18.60;70.30;;;;;;5051552;28;20594;-72
2021/11/06 06:29:12;;;;;;;6.50;2.03;;;18.50;70.10;;;;;;5049607;28;20102;-72
2021/11/06 06:31:38;;;;;;;9.10;1.95;;;18.60;69.60;;;;;;5050917;28;20053;-73
2021/11/06 06:34:05;;;;;;;4.18;1.50;;;18.60;68.90;;;;;;5049877;28;20086;-71
2021/11/06 06:36:31;;;;;;;9.70;2.33;;;18.60;68.40;;;;;;5051199;28;20024;-74
2021/11/06 06:38:58;;;;;;;4.40;1.40;;;18.70;67.70;;;;;;5050295;28;20096;-71
2021/11/06 06:41:24;;;;;;;6.22;3.47;;;18.70;67.40;;;;;;5046825;28;20013;-70
2021/11/06 06:43:51;;;;;;;9.82;4.38;;;18.80;66.90;;;;;;5048208;28;20021;-71
2021/11/06 06:46:18;;;;;;;6.28;1.95;;;18.80;66.50;;;;;;5049550;28;20105;-71
2021/11/06 06:48:44;;;;;;;5.28;1.70;;;18.90;65.70;;;;;;5050697;28;20033;-71
2021/11/06 06:51:11;;;;;;;3.08;1.58;;;19.00;65.30;;;;;;5049213;28;20032;-70
2021/11/06 06:53:38;;;;;;;2.42;1.30;;;19.00;64.20;;;;;;5050295;28;20032;-71
2021/11/06 06:56:04;;;;;;;6.38;1.75;;;19.10;63.50;;;;;;5049562;28;20062;-71
2021/11/06 06:58:33;;;;;;;5.93;1.23;;;19.20;62.20;;;;;;5048548;28;20078;-72
2021/11/06 07:00:59;;;;;;;3.63;0.70;;;19.20;61.40;;;;;;5048765;28;20095;-73
2021/11/06 07:03:26;;;;;;;5.57;0.90;;;19.30;61.00;;;;;;5049492;28;20028;-69
2021/11/06 07:05:52;;;;;;;4.80;1.00;;;19.20;60.70;;;;;;5049109;28;20021;-69
2021/11/06 07:08:21;;;;;;;5.57;1.13;;;19.30;60.60;;;;;;5049434;28;20029;-70
2021/11/06 07:10:47;;;;;;;5.15;0.98;;;19.40;60.40;;;;;;5049704;28;20076;-70
2021/11/06 07:13:20;;;;;;;5.22;1.33;;;19.50;60.50;;;;;;5049695;28;20503;-70
2021/11/06 07:15:50;;;;;;;6.15;1.88;;;19.60;61.40;;;;;;5043177;28;20553;-71
2021/11/06 07:18:17;;;;;;;4.05;1.00;;;19.70;62.10;;;;;;5046160;28;20396;-72
2021/11/06 07:20:44;;;;;;;8.00;1.58;;;19.80;62.60;;;;;;5048891;28;20365;-71
2021/11/06 07:23:11;;;;;;;4.10;1.23;;;19.90;62.30;;;;;;5043112;28;20036;-72
2021/11/06 07:25:38;;;;;;;7.03;1.67;;;20.00;61.70;;;;;;5048911;28;20107;-70
2021/11/06 07:28:05;;;;;;;3.20;0.98;;;20.10;61.20;;;;;;5049110;28;20395;-70
2021/11/06 07:30:31;;;;;;;5.32;1.23;;;20.10;61.10;;;;;;5048737;28;20515;-71
2021/11/06 07:32:58;;;;;;;4.05;1.00;;;20.20;60.80;;;;;;5049524;28;20017;-72
2021/11/06 07:35:25;;;;;;;6.80;1.30;;;20.30;60.50;;;;;;5049321;28;20056;-71
2021/11/06 07:37:51;;;;;;;2.42;1.17;;;20.40;60.20;;;;;;5048905;28;20016;-70
2021/11/06 07:40:18;;;;;;;6.70;1.30;;;20.40;60.10;;;;;;5050095;28;20100;-71
2021/11/06 07:42:47;;;;;;;6.03;1.52;;;20.50;60.10;;;;;;5047899;28;20115;-70
2021/11/06 07:45:15;;;;;;;3.28;0.93;;;20.40;59.40;;;;;;5048113;28;20029;-70
2021/11/06 07:47:42;;;;;;;3.88;1.10;;;20.40;59.50;;;;;;5048445;28;20091;-70
2021/11/06 07:50:09;;;;;;;2.22;0.75;;;20.30;60.00;;;;;;5049514;28;20059;-72
2021/11/06 07:52:36;;;;;;;3.42;1.00;;;20.20;59.70;;;;;;5049215;28;20108;-71
2021/11/06 07:55:05;;;;;;;3.70;1.02;;;20.20;58.70;;;;;;5049106;28;20021;-72
2021/11/06 07:57:32;;;;;;;1.20;0.60;;;20.10;57.50;;;;;;5048450;28;20025;-73
2021/11/06 07:59:59;;;;;;;7.15;1.20;;;20.00;57.50;;;;;;5047082;28;20025;-71
2021/11/06 08:02:26;;;;;;;3.03;1.50;;;20.00;58.00;;;;;;5049700;28;20845;-72
2021/11/06 08:04:52;;;;;;;6.88;1.38;;;20.10;59.30;;;;;;5048263;28;20151;-71
2021/11/06 08:07:19;;;;;;;6.45;1.00;;;20.10;58.70;;;;;;5046607;28;20039;-72
2021/11/06 08:09:45;;;;;;;3.35;1.30;;;20.00;58.60;;;;;;5048695;28;20055;-72
2021/11/06 08:12:12;;;;;;;5.05;1.30;;;20.00;57.80;;;;;;5049546;28;20426;-71
2021/11/06 08:14:38;;;;;;;5.82;1.50;;;20.00;58.40;;;;;;5049140;28;20029;-73
2021/11/06 08:17:05;;;;;;;2.92;1.35;;;19.90;58.60;;;;;;5048208;28;20066;-72
2021/11/06 08:19:31;;;;;;;4.28;1.15;;;19.90;59.00;;;;;;5049280;28;20488;-72
2021/11/06 08:21:58;;;;;;;10.32;2.60;;;20.00;58.80;;;;;;5049026;28;20047;-71
2021/11/06 08:24:24;;;;;;;5.40;1.30;;;20.00;58.70;;;;;;5049702;28;20033;-70
2021/11/06 08:26:52;;;;;;;5.50;1.23;;;20.00;58.60;;;;;;5048308;28;20014;-74
2021/11/06 08:29:18;;;;;;;5.05;1.98;;;20.20;58.70;;;;;;5050105;28;20492;-73
2021/11/06 08:31:45;;;;;;;3.10;1.10;;;20.30;57.90;;;;;;5052997;28;20020;-71
2021/11/06 08:34:11;;;;;;;8.20;1.33;;;20.50;57.70;;;;;;5052469;28;20096;-69
2021/11/06 08:36:38;;;;;;;4.93;1.00;;;20.70;56.60;;;;;;5053541;28;20017;-70
2021/11/06 08:39:06;;;;;;;2.72;0.90;;;20.80;55.90;;;;;;5052432;28;20534;-70
2021/11/06 08:41:32;;;;;;;2.15;1.13;;;21.00;55.30;;;;;;5053828;28;20013;-69
2021/11/06 08:43:59;;;;;;;3.92;1.50;;;21.20;54.20;;;;;;5051093;28;20029;-73
2021/11/06 08:46:26;;;;;;;1.98;0.77;;;21.30;53.40;;;;;;5052997;28;20024;-70
2021/11/06 08:48:53;;;;;;;2.47;1.10;;;21.50;52.80;;;;;;5052468;28;20009;-69
2021/11/06 08:51:20;;;;;;;1.60;0.93;;;21.50;52.50;;;;;;5052553;28;20106;-69
2021/11/06 08:53:49;;;;;;;1.10;0.70;;;21.60;51.40;;;;;;5053019;28;20482;-70
2021/11/06 08:56:16;;;;;;;2.97;1.02;;;21.60;51.20;;;;;;5050515;28;20021;-70
2021/11/06 08:58:42;;;;;;;8.20;3.03;;;21.70;51.30;;;;;;5047403;28;20127;-70
2021/11/06 09:01:09;;;;;;;7.05;1.27;;;21.80;50.90;;;;;;5051152;28;20384;-68
2021/11/06 09:03:35;;;;;;;3.08;0.90;;;21.90;51.20;;;;;;5047852;28;20024;-69
2021/11/06 09:06:02;;;;;;;2.08;1.00;;;22.00;50.50;;;;;;5052487;28;20033;-68
2021/11/06 09:08:32;;;;;;;3.20;0.98;;;22.00;49.30;;;;;;5049983;28;20088;-68
2021/11/06 09:11:03;;;;;;;5.07;0.88;;;22.10;48.40;;;;;;5052755;28;20017;-70
2021/11/06 09:13:31;;;;;;;2.00;0.65;;;22.10;48.30;;;;;;5045925;28;20022;-70
2021/11/06 09:15:59;;;;;;;1.00;0.70;;;22.20;47.70;;;;;;5051223;28;20025;-68
2021/11/06 09:18:26;;;;;;;5.28;1.13;;;22.30;48.20;;;;;;5047632;28;20179;-69
2021/11/06 09:20:53;;;;;;;2.63;1.70;;;22.40;48.10;;;;;;5048587;28;20025;-71
2021/11/06 09:23:19;;;;;;;1.52;0.80;;;22.50;48.20;;;;;;5050546;28;20028;-71
2021/11/06 09:25:46;;;;;;;4.13;1.10;;;22.50;48.00;;;;;;5050142;28;20039;-70
2021/11/06 09:28:13;;;;;;;3.20;0.63;;;22.60;47.10;;;;;;5051154;28;20025;-69
2021/11/06 09:30:39;;;;;;;2.33;0.65;;;22.60;45.80;;;;;;5051226;28;20020;-70
2021/11/06 09:33:06;;;;;;;4.97;0.90;;;22.70;46.60;;;;;;5052007;28;20028;-71
2021/11/06 09:35:32;;;;;;;2.55;0.90;;;22.80;46.40;;;;;;5050993;28;20028;-70
2021/11/06 09:37:59;;;;;;;2.50;0.70;;;22.80;46.20;;;;;;5050953;28;20084;-69
2021/11/06 09:40:26;;;;;;;4.20;0.80;;;22.90;45.80;;;;;;5050659;28;20021;-68
2021/11/06 09:42:52;;;;;;;2.10;0.60;;;22.80;45.60;;;;;;5051295;28;20021;-70
2021/11/06 09:45:19;;;;;;;3.22;1.02;;;22.80;46.70;;;;;;5051553;28;20087;-73
2021/11/06 09:47:47;;;;;;;4.18;1.20;;;22.90;45.90;;;;;;5051057;28;20013;-70
2021/11/06 09:50:18;;;;;;;43.38;8.30;;;22.90;46.00;;;;;;5051801;28;20105;-70
2021/11/06 09:52:46;;;;;;;12.77;2.35;;;23.00;46.40;;;;;;5049250;28;20033;-69
2021/11/06 09:55:17;;;;;;;91.70;13.77;;;23.10;48.80;;;;;;5051200;28;20029;-70
2021/11/06 09:57:44;;;;;;;9.05;1.50;;;23.20;50.40;;;;;;5050647;28;20586;-70
2021/11/06 10:00:12;;;;;;;24.30;3.83;;;23.30;49.40;;;;;;5051283;28;20025;-67
2021/11/06 10:02:40;;;;;;;7.10;1.50;;;23.30;49.30;;;;;;5051360;28;20396;-69
2021/11/06 10:05:07;;;;;;;18.90;4.35;;;23.30;49.40;;;;;;5051072;28;20024;-71
2021/11/06 10:07:34;;;;;;;19.75;2.95;;;23.30;49.50;;;;;;5051772;28;20500;-70
2021/11/06 10:10:12;;;;;;;8.77;1.83;;;23.30;49.10;;;;;;5049617;28;20357;-69
2021/11/06 10:12:57;;;;;;;7.07;1.77;;;23.20;48.80;;;;;;5051287;28;20028;-70
2021/11/06 10:15:25;;;;;;;8.65;1.48;;;22.90;48.40;;;;;;5050375;28;20040;-69
2021/11/06 10:17:53;;;;;;;4.05;1.13;;;22.70;49.00;;;;;;5050544;28;20064;-69
2021/11/06 10:20:28;;;;;;;13.68;1.73;;;22.70;49.70;;;;;;5051678;28;20116;-71
2021/11/06 10:22:58;;;;;;;10.40;6.53;;;22.70;49.90;;;;;;5049544;28;20017;-70
2021/11/06 10:25:27;;;;;;;4.55;2.22;;;22.80;49.00;;;;;;5050955;28;20376;-70
2021/11/06 10:27:59;;;;;;;21.88;3.20;;;22.70;48.70;;;;;;5047256;28;20072;-70
2021/11/06 10:30:31;;;;;;;8.60;3.40;;;22.80;48.90;;;;;;5050825;28;20025;-69
2021/11/06 10:33:04;;;;;;;3.53;1.60;;;22.80;49.50;;;;;;5050560;28;20028;-69
2021/11/06 10:35:37;;;;;;;16.70;2.22;;;22.80;49.60;;;;;;5050393;28;20040;-70
2021/11/06 10:38:10;;;;;;;6.47;1.95;;;22.80;49.90;;;;;;5050370;28;20563;-71
2021/11/06 10:40:50;;;;;;;11.15;2.72;;;22.80;50.20;;;;;;5049742;28;20029;-73
2021/11/06 10:43:19;;;;;;;6.57;1.48;;;22.70;49.70;;;;;;5050507;28;20025;-69
2021/11/06 10:45:48;;;;;;;2.80;0.90;;;22.70;49.80;;;;;;5047675;28;20484;-69
2021/11/06 10:48:21;;;;;;;7.30;1.52;;;22.60;49.50;;;;;;5050029;28;20545;-71
2021/11/06 10:51:06;;;;;;;4.38;1.52;;;22.50;49.90;;;;;;5050595;28;20024;-70
2021/11/06 10:53:50;;;;;;;6.25;1.73;;;22.30;50.20;;;;;;5047305;28;20025;-69
2021/11/06 10:56:23;;;;;;;7.00;1.08;;;22.30;50.90;;;;;;5049680;28;20094;-69
2021/11/06 10:58:51;;;;;;;2.67;1.10;;;22.20;50.60;;;;;;5048073;28;20111;-74
2021/11/06 11:01:29;;;;;;;2.95;1.10;;;22.20;50.20;;;;;;5048113;28;20021;-76
2021/11/06 11:04:03;;;;;;;11.07;5.50;;;22.10;50.50;;;;;;5048480;28;20490;-72
2021/11/06 11:06:37;;;;;;;8.15;2.67;;;22.10;50.90;;;;;;5048529;28;20107;-71
2021/11/06 11:09:08;;;;;;;4.28;1.50;;;22.10;50.70;;;;;;5049353;28;20029;-79
2021/11/06 11:11:35;;;;;;;1.50;1.00;;;22.00;50.80;;;;;;5049754;28;20024;-76
2021/11/06 11:14:05;;;;;;;7.10;0.85;;;22.00;50.70;;;;;;5048089;28;20071;-73
2021/11/06 11:16:33;;;;;;;6.80;0.90;;;21.90;51.20;;;;;;5047313;28;20021;-75
2021/11/06 11:19:06;;;;;;;2.75;1.00;;;21.90;51.10;;;;;;5047546;28;20041;-74
2021/11/06 11:21:39;;;;;;;4.20;1.25;;;21.90;51.10;;;;;;5044195;28;20491;-75
2021/11/06 11:24:12;;;;;;;5.78;1.40;;;21.80;51.10;;;;;;5045990;28;20028;-76
2021/11/06 11:26:46;;;;;;;1.45;0.60;;;21.90;51.30;;;;;;5047808;28;20024;-73
2021/11/06 11:29:52;;;;;;;2.63;1.20;;;21.90;51.60;;;;;;5049597;28;20027;-75
2021/11/06 11:32:59;;;;;;;5.43;1.50;;;21.90;50.50;;;;;;5044593;28;20483;-75
2021/11/06 11:35:45;;;;;;;;;;;22.00;50.60;;;;;;5046243;28;20021;-76
2021/11/06 11:38:51;;;;;;;30.48;5.38;;;22.00;50.10;;;;;;5048393;28;19912;-74
2021/11/06 11:41:23;;;;;;;9.50;1.40;;;22.00;49.90;;;;;;5045600;28;20029;-76
2021/11/06 11:44:02;;;;;;;2.50;0.90;;;22.00;49.70;;;;;;5049152;28;20104;-75
2021/11/06 11:47:24;;;;;;;1.63;0.75;;;21.90;50.00;;;;;;5049773;28;20434;-77
2021/11/06 11:50:31;;;;;;;42.92;5.88;;;21.90;49.70;;;;;;5048110;28;20029;-72
2021/11/06 11:53:04;;;;;;;28.33;6.40;;;21.90;49.20;;;;;;5049576;28;20040;-75
2021/11/06 11:55:40;;;;;;;15.05;3.58;;;21.70;49.30;;;;;;5048657;28;20063;-73
2021/11/06 11:58:16;;;;;;;10.48;2.80;;;21.70;49.60;;;;;;5048325;28;20452;-71
2021/11/06 12:00:55;;;;;;;30.02;6.15;;;21.70;49.80;;;;;;5044682;28;20052;-73
2021/11/06 12:03:41;;;;;;;10.52;2.30;;;21.70;50.10;;;;;;5048276;28;20017;-74
2021/11/06 12:06:25;;;;;;;;;;;21.70;50.10;;;;;;5048517;28;20045;-78
2021/11/06 12:09:12;;;;;;;37.47;9.98;;;21.80;50.40;;;;;;5046599;28;19912;-77
2021/11/06 12:12:33;;;;;;;28.83;20.85;;;21.90;50.30;;;;;;5046289;28;20399;-71
2021/11/06 12:15:39;;;;;;;12.63;9.40;;;21.90;50.90;;;;;;5047607;28;20110;-67
2021/11/06 12:18:40;;;;;;;9.25;5.20;;;21.80;49.70;;;;;;5046492;28;20056;-70
2021/11/06 12:24:08;;;;;;;8.07;1.52;;;21.90;50.50;;;;;;5048400;28;20032;-72
2021/11/06 12:27:14;;;;;;;3.95;2.33;;;21.90;50.40;;;;;;5048197;28;20021;-75
2021/11/06 12:30:20;;;;;;;10.35;2.50;;;21.90;50.80;;;;;;5045320;28;20551;-75
2021/11/06 12:33:26;;;;;;;17.45;3.17;;;22.00;50.40;;;;;;5046696;28;20052;-73
2021/11/06 12:36:45;;;;;;;4.38;2.58;;;22.00;49.40;;;;;;5048396;28;20025;-71
2021/11/06 12:39:57;;;;;;;2.85;1.02;;;22.30;49.60;;;;;;5049217;28;20052;-73
2021/11/06 12:43:03;;;;;;;3.22;0.80;;;22.50;49.10;;;;;;5047741;28;20033;-84
2021/11/06 12:46:09;;;;;;;1.55;0.70;;;22.60;48.70;;;;;;5045418;28;20170;-74
2021/11/06 12:49:21;;;;;;;6.50;1.10;;;22.60;48.80;;;;;;5046248;28;20044;-76
2021/11/06 12:52:27;;;;;;;4.00;0.80;;;22.70;48.60;;;;;;5046616;28;20116;-77
2021/11/06 12:55:33;;;;;;;3.80;1.27;;;22.70;48.00;;;;;;5046388;28;20052;-74
2021/11/06 12:58:39;;;;;;;3.38;1.70;;;22.60;48.20;;;;;;5039638;28;20128;-71
2021/11/06 13:01:54;;;;;;;6.63;1.33;;;22.50;48.50;;;;;;5045826;28;20013;-73
2021/11/06 13:05:00;;;;;;;5.60;0.85;;;22.50;48.70;;;;;;5046118;28;20055;-73
2021/11/06 13:08:06;;;;;;;4.13;0.77;;;22.40;49.00;;;;;;5046537;28;20392;-71
2021/11/06 13:11:12;;;;;;;1.58;0.70;;;22.30;49.10;;;;;;5046673;28;20025;-73
2021/11/06 13:14:18;;;;;;;7.43;1.50;;;22.30;49.50;;;;;;5045303;28;20021;-75
2021/11/06 13:17:27;;;;;;;2.70;0.80;;;22.30;49.50;;;;;;5049096;28;20376;-75
2021/11/06 13:19:58;;;;;;;4.43;0.90;;;22.40;49.60;;;;;;5048072;28;20095;-80
2021/11/06 13:22:25;;;;;;;5.22;1.40;;;22.60;49.30;;;;;;5051244;28;20029;-77
2021/11/06 13:25:17;;;;;;;1.98;1.00;;;22.90;49.30;;;;;;5051135;28;20029;-76
2021/11/06 13:27:50;;;;;;;4.50;1.05;;;23.00;48.60;;;;;;5051381;28;20507;-76
2021/11/06 13:30:46;;;;;;;1.05;0.80;;;23.10;48.50;;;;;;5051304;28;20072;-75
2021/11/06 13:33:39;;;;;;;3.55;0.95;;;23.20;48.50;;;;;;5049382;28;20353;-75
2021/11/06 13:36:48;;;;;;;2.92;1.42;;;23.30;48.40;;;;;;5051013;28;20078;-69
2021/11/06 13:39:54;;;;;;;4.38;2.45;;;23.30;48.20;;;;;;5051886;28;20032;-74
2021/11/06 13:43:03;;;;;;;4.35;1.75;;;23.30;47.80;;;;;;5050112;28;20009;-72
2021/11/06 13:46:04;;;;;;;11.13;8.73;;;23.20;48.20;;;;;;5048872;28;20024;-72
2021/11/06 13:49:15;;;;;;;10.23;4.20;;;23.10;47.60;;;;;;5049162;28;20048;-75
2021/11/06 13:51:58;;;;;;;6.00;1.58;;;23.20;48.00;;;;;;5079010;28;20387;-74
2021/11/06 13:54:59;;;;;;;55.05;49.70;;;23.30;47.90;;;;;;5046464;28;20533;-75
2021/11/06 13:58:05;;;;;;;12.73;9.65;;;23.40;47.90;;;;;;5047857;28;20387;-74
2021/11/06 14:01:11;;;;;;;4.63;1.88;;;23.50;47.10;;;;;;5050959;28;20484;-72
2021/11/06 14:03:57;;;;;;;;;;;23.50;47.00;;;;;;5047962;28;20025;-71
2021/11/06 14:06:24;;;;;;;6.95;5.70;;;23.60;46.70;;;;;;5049728;28;20001;-75
2021/11/06 14:09:30;;;;;;;12.52;9.52;;;23.70;46.10;;;;;;5047680;28;20388;-69